CFG8AD EDDF-LGSM
Flight info
| Callsign | CFG8AD |
|---|---|
| Flight time | 2h 42m |
| Altitude | 35000 |
| Route | CINDY8S/18 CINDY Z74 LAMPU DCT NOMBO Y161 MAH DCT VAVOR DCT RADIZ DCT KUSIB DCT OKSIG DCT MARIL DCT BOSNA DCT PODOB DCT MEDUX UM867 KOGAT DCT ERANA UL737 TSL UN130 PIVOS N130 MES G18 URNIL |
| Aircraft | A21N/M-SDE2E3FGHIRWXY/LB1 |
Departure
| Time | 2026-05-06 14:24 |
|---|---|
| Airport | Frankfurt Main Airport (EDDF) |
Arrival
| Time | 2026-05-06 17:06 |
|---|---|
| Airport | Samos Airport (LGSM) |
| Time | Latitude | Longitude | Altitude | Speed | Heading |
|---|---|---|---|---|---|
| 2026-05-06 13:47 | 50.03890 | 8.54881 | 360 ft | 0 kts | 159° |
| 2026-05-06 14:18 | 50.03878 | 8.54888 | 363 ft | 4 kts | 159° |
| 2026-05-06 14:18 | 50.03844 | 8.54908 | 355 ft | 7 kts | 159° |
| 2026-05-06 14:19 | 50.03798 | 8.54899 | 362 ft | 8 kts | 232° |
| 2026-05-06 14:19 | 50.03776 | 8.54812 | 354 ft | 10 kts | 249° |
| 2026-05-06 14:19 | 50.03749 | 8.54699 | 358 ft | 13 kts | 250° |
| 2026-05-06 14:19 | 50.03716 | 8.54559 | 354 ft | 15 kts | 249° |
| 2026-05-06 14:20 | 50.03676 | 8.54397 | 356 ft | 17 kts | 249° |
| 2026-05-06 14:20 | 50.03632 | 8.54210 | 350 ft | 19 kts | 250° |
| 2026-05-06 14:20 | 50.03584 | 8.54010 | 352 ft | 20 kts | 249° |
| 2026-05-06 14:20 | 50.03533 | 8.53799 | 350 ft | 21 kts | 249° |
| 2026-05-06 14:21 | 50.03480 | 8.53577 | 344 ft | 22 kts | 249° |
| 2026-05-06 14:21 | 50.03425 | 8.53345 | 348 ft | 23 kts | 249° |
| 2026-05-06 14:21 | 50.03366 | 8.53102 | 342 ft | 24 kts | 250° |
| 2026-05-06 14:21 | 50.03319 | 8.52905 | 336 ft | 18 kts | 250° |
| 2026-05-06 14:22 | 50.03283 | 8.52757 | 338 ft | 13 kts | 250° |
| 2026-05-06 14:22 | 50.03266 | 8.52664 | 339 ft | 9 kts | 265° |
| 2026-05-06 14:22 | 50.03236 | 8.52598 | 340 ft | 9 kts | 194° |
| 2026-05-06 14:22 | 50.03168 | 8.52596 | 341 ft | 11 kts | 180° |
| 2026-05-06 14:23 | 50.03005 | 8.52598 | 337 ft | 50 kts | 179° |
| 2026-05-06 14:23 | 50.02418 | 8.52605 | 339 ft | 115 kts | 179° |
| 2026-05-06 14:23 | 50.01441 | 8.52620 | 340 ft | 163 kts | 180° |
| 2026-05-06 14:23 | 50.00286 | 8.52654 | 822 ft | 166 kts | 182° |
| 2026-05-06 14:24 | 49.99101 | 8.52699 | 1356 ft | 176 kts | 181° |
| 2026-05-06 14:24 | 49.97824 | 8.52832 | 1769 ft | 192 kts | 181° |
| 2026-05-06 14:24 | 49.96430 | 8.52924 | 2226 ft | 210 kts | 181° |
| 2026-05-06 14:24 | 49.94887 | 8.53021 | 2794 ft | 230 kts | 180° |
| 2026-05-06 14:25 | 49.93276 | 8.53131 | 3731 ft | 231 kts | 181° |
| 2026-05-06 14:25 | 49.91671 | 8.53239 | 4705 ft | 231 kts | 180° |
| 2026-05-06 14:25 | 49.90064 | 8.53346 | 5585 ft | 233 kts | 180° |
| 2026-05-06 14:25 | 49.88439 | 8.53454 | 6405 ft | 236 kts | 180° |
| 2026-05-06 14:26 | 49.86790 | 8.53564 | 7209 ft | 238 kts | 180° |
| 2026-05-06 14:26 | 49.85128 | 8.53677 | 7984 ft | 241 kts | 180° |
| 2026-05-06 14:26 | 49.83439 | 8.53791 | 8748 ft | 244 kts | 180° |
| 2026-05-06 14:26 | 49.81733 | 8.53910 | 9506 ft | 248 kts | 179° |
| 2026-05-06 14:27 | 49.80035 | 8.54449 | 10151 ft | 253 kts | 158° |
| 2026-05-06 14:27 | 49.78619 | 8.56099 | 10592 ft | 264 kts | 130° |
| 2026-05-06 14:27 | 49.77819 | 8.58795 | 10764 ft | 293 kts | 104° |
| 2026-05-06 14:27 | 49.77644 | 8.62100 | 10835 ft | 324 kts | 92° |
| 2026-05-06 14:28 | 49.77615 | 8.65748 | 10833 ft | 353 kts | 92° |
| 2026-05-06 14:28 | 49.77557 | 8.69690 | 10874 ft | 379 kts | 93° |
| 2026-05-06 14:28 | 49.77453 | 8.73824 | 11372 ft | 387 kts | 94° |
| 2026-05-06 14:28 | 49.77324 | 8.77969 | 12206 ft | 386 kts | 94° |
| 2026-05-06 14:29 | 49.77183 | 8.82130 | 13048 ft | 387 kts | 94° |
| 2026-05-06 14:29 | 49.77038 | 8.86292 | 13773 ft | 389 kts | 95° |
| 2026-05-06 14:29 | 49.76941 | 8.89059 | 14232 ft | 390 kts | 95° |
| 2026-05-06 14:29 | 49.76789 | 8.93251 | 14883 ft | 393 kts | 95° |
| 2026-05-06 14:30 | 49.76634 | 8.97505 | 15471 ft | 397 kts | 95° |
| 2026-05-06 14:30 | 49.76472 | 9.01853 | 16059 ft | 402 kts | 95° |
| 2026-05-06 14:30 | 49.76310 | 9.06138 | 16648 ft | 406 kts | 95° |
| 2026-05-06 14:30 | 49.75980 | 9.10483 | 17254 ft | 408 kts | 103° |
| 2026-05-06 14:31 | 49.75308 | 9.14759 | 17892 ft | 410 kts | 108° |
| 2026-05-06 14:31 | 49.74259 | 9.18840 | 18446 ft | 410 kts | 120° |
| 2026-05-06 14:31 | 49.72648 | 9.22458 | 18956 ft | 410 kts | 132° |
| 2026-05-06 14:31 | 49.70769 | 9.25777 | 19496 ft | 412 kts | 134° |
| 2026-05-06 14:32 | 49.68854 | 9.29088 | 20033 ft | 415 kts | 134° |
| 2026-05-06 14:32 | 49.66933 | 9.32444 | 20571 ft | 417 kts | 133° |
| 2026-05-06 14:32 | 49.65017 | 9.35815 | 21087 ft | 420 kts | 133° |
| 2026-05-06 14:32 | 49.63068 | 9.39206 | 21603 ft | 422 kts | 135° |
| 2026-05-06 14:33 | 49.60888 | 9.42217 | 22081 ft | 422 kts | 146° |
| 2026-05-06 14:33 | 49.58411 | 9.44669 | 22558 ft | 423 kts | 151° |
| 2026-05-06 14:33 | 49.55874 | 9.46964 | 22991 ft | 425 kts | 152° |
| 2026-05-06 14:33 | 49.53308 | 9.49271 | 23393 ft | 428 kts | 152° |
| 2026-05-06 14:34 | 49.50732 | 9.51601 | 23730 ft | 430 kts | 152° |
| 2026-05-06 14:34 | 49.48148 | 9.53946 | 24045 ft | 432 kts | 152° |
| 2026-05-06 14:34 | 49.45568 | 9.56295 | 24350 ft | 433 kts | 152° |
| 2026-05-06 14:34 | 49.42962 | 9.58666 | 24630 ft | 435 kts | 152° |
| 2026-05-06 14:35 | 49.40358 | 9.61034 | 24948 ft | 437 kts | 152° |
| 2026-05-06 14:35 | 49.37732 | 9.63418 | 25352 ft | 439 kts | 152° |
| 2026-05-06 14:35 | 49.35117 | 9.65843 | 25758 ft | 442 kts | 149° |
| 2026-05-06 14:35 | 49.32682 | 9.68789 | 26148 ft | 448 kts | 140° |
| 2026-05-06 14:36 | 49.30441 | 9.72138 | 26527 ft | 451 kts | 138° |
| 2026-05-06 14:36 | 49.28228 | 9.75558 | 26902 ft | 453 kts | 138° |
| 2026-05-06 14:36 | 49.26012 | 9.78979 | 27375 ft | 452 kts | 139° |
| 2026-05-06 14:36 | 49.23795 | 9.82373 | 27893 ft | 450 kts | 139° |
| 2026-05-06 14:37 | 49.21583 | 9.85744 | 28423 ft | 448 kts | 139° |
| 2026-05-06 14:37 | 49.19372 | 9.89105 | 28942 ft | 446 kts | 140° |
| 2026-05-06 14:37 | 49.17177 | 9.92437 | 29434 ft | 444 kts | 140° |
| 2026-05-06 14:37 | 49.14984 | 9.95755 | 29882 ft | 443 kts | 140° |
| 2026-05-06 14:38 | 49.12799 | 9.99060 | 30228 ft | 442 kts | 140° |
| 2026-05-06 14:38 | 49.10618 | 10.02357 | 30541 ft | 442 kts | 140° |
| 2026-05-06 14:38 | 49.08422 | 10.05673 | 30832 ft | 443 kts | 141° |
| 2026-05-06 14:38 | 49.06223 | 10.08961 | 31129 ft | 442 kts | 142° |
| 2026-05-06 14:39 | 49.03984 | 10.12157 | 31423 ft | 442 kts | 143° |
| 2026-05-06 14:39 | 49.01732 | 10.15352 | 31712 ft | 442 kts | 143° |
| 2026-05-06 14:39 | 48.99479 | 10.18535 | 32013 ft | 442 kts | 143° |
| 2026-05-06 14:39 | 48.97216 | 10.21720 | 32307 ft | 441 kts | 143° |
| 2026-05-06 14:40 | 48.94965 | 10.24885 | 32600 ft | 441 kts | 144° |
| 2026-05-06 14:40 | 48.92719 | 10.28049 | 32875 ft | 441 kts | 144° |
| 2026-05-06 14:40 | 48.90466 | 10.31232 | 33169 ft | 440 kts | 144° |
| 2026-05-06 14:40 | 48.88229 | 10.34396 | 33453 ft | 440 kts | 144° |
| 2026-05-06 14:41 | 48.85987 | 10.37558 | 33713 ft | 439 kts | 144° |
| 2026-05-06 14:41 | 48.83747 | 10.40712 | 33953 ft | 439 kts | 144° |
| 2026-05-06 14:41 | 48.81585 | 10.44007 | 34139 ft | 442 kts | 141° |
| 2026-05-06 14:41 | 48.79467 | 10.47388 | 34323 ft | 442 kts | 140° |
| 2026-05-06 14:42 | 48.77352 | 10.50778 | 34519 ft | 442 kts | 140° |
| 2026-05-06 14:42 | 48.75239 | 10.54173 | 34707 ft | 442 kts | 140° |
| 2026-05-06 14:42 | 48.73124 | 10.57559 | 34809 ft | 443 kts | 140° |
| 2026-05-06 14:42 | 48.71008 | 10.60943 | 34824 ft | 442 kts | 140° |
| 2026-05-06 14:43 | 48.66766 | 10.67696 | 34773 ft | 442 kts | 141° |
| 2026-05-06 14:43 | 48.62515 | 10.74437 | 34760 ft | 443 kts | 141° |
| 2026-05-06 14:44 | 48.58259 | 10.81158 | 34760 ft | 443 kts | 141° |
| 2026-05-06 14:45 | 48.51914 | 10.91308 | 34757 ft | 443 kts | 141° |
| 2026-05-06 14:45 | 48.47675 | 10.98060 | 34752 ft | 443 kts | 141° |
| 2026-05-06 14:46 | 48.43389 | 11.04719 | 34745 ft | 443 kts | 141° |
| 2026-05-06 14:46 | 48.39101 | 11.11382 | 34745 ft | 443 kts | 141° |
| 2026-05-06 14:47 | 48.34816 | 11.18050 | 34745 ft | 443 kts | 141° |
| 2026-05-06 14:47 | 48.30531 | 11.24677 | 34761 ft | 442 kts | 142° |
| 2026-05-06 14:48 | 48.26331 | 11.31448 | 34753 ft | 449 kts | 134° |
| 2026-05-06 14:48 | 48.23034 | 11.39535 | 34766 ft | 456 kts | 127° |
| 2026-05-06 14:49 | 48.19903 | 11.47795 | 34765 ft | 455 kts | 127° |
| 2026-05-06 14:49 | 48.16759 | 11.55964 | 34759 ft | 455 kts | 127° |
| 2026-05-06 14:50 | 48.13572 | 11.64166 | 34722 ft | 456 kts | 128° |
| 2026-05-06 14:50 | 48.10375 | 11.72358 | 34718 ft | 456 kts | 128° |
| 2026-05-06 14:51 | 48.07171 | 11.80548 | 34702 ft | 457 kts | 128° |
| 2026-05-06 14:51 | 48.03951 | 11.88753 | 34697 ft | 457 kts | 128° |
| 2026-05-06 14:52 | 48.00725 | 11.96951 | 34692 ft | 458 kts | 128° |
| 2026-05-06 14:52 | 47.97492 | 12.05138 | 34693 ft | 458 kts | 128° |
| 2026-05-06 14:53 | 47.94211 | 12.13301 | 34686 ft | 455 kts | 132° |
| 2026-05-06 14:53 | 47.92239 | 12.16898 | 34684 ft | 442 kts | 143° |
| 2026-05-06 14:53 | 47.89965 | 12.19929 | 34697 ft | 437 kts | 148° |
| 2026-05-06 14:54 | 47.85287 | 12.25687 | 34695 ft | 436 kts | 149° |
| 2026-05-06 14:54 | 47.80630 | 12.31466 | 34691 ft | 436 kts | 148° |
| 2026-05-06 14:55 | 47.75984 | 12.37256 | 34688 ft | 435 kts | 148° |
| 2026-05-06 14:55 | 47.71348 | 12.43029 | 34692 ft | 435 kts | 148° |
| 2026-05-06 14:56 | 47.66713 | 12.48784 | 34688 ft | 435 kts | 148° |
| 2026-05-06 14:56 | 47.62151 | 12.54687 | 34689 ft | 442 kts | 142° |
| 2026-05-06 14:57 | 47.58065 | 12.61566 | 34691 ft | 445 kts | 139° |
| 2026-05-06 14:57 | 47.54022 | 12.68502 | 34690 ft | 444 kts | 139° |
| 2026-05-06 14:58 | 47.49963 | 12.75399 | 34686 ft | 444 kts | 140° |
| 2026-05-06 14:58 | 47.45893 | 12.82286 | 34699 ft | 445 kts | 140° |
| 2026-05-06 14:59 | 47.41817 | 12.89161 | 34713 ft | 445 kts | 140° |
| 2026-05-06 14:59 | 47.37737 | 12.96028 | 34715 ft | 445 kts | 140° |
| 2026-05-06 15:00 | 47.33648 | 13.02902 | 34722 ft | 446 kts | 140° |
| 2026-05-06 15:00 | 47.29550 | 13.09773 | 34741 ft | 447 kts | 139° |
| 2026-05-06 15:01 | 47.25438 | 13.16634 | 34750 ft | 448 kts | 139° |
| 2026-05-06 15:01 | 47.21310 | 13.23519 | 34764 ft | 449 kts | 139° |
| 2026-05-06 15:02 | 47.17191 | 13.30363 | 34785 ft | 450 kts | 139° |
| 2026-05-06 15:02 | 47.13037 | 13.37257 | 34795 ft | 451 kts | 139° |
| 2026-05-06 15:03 | 47.08870 | 13.44158 | 34796 ft | 452 kts | 139° |
| 2026-05-06 15:03 | 47.04692 | 13.51043 | 34832 ft | 452 kts | 139° |
| 2026-05-06 15:04 | 47.00520 | 13.57913 | 34843 ft | 451 kts | 138° |
| 2026-05-06 15:04 | 46.96343 | 13.64770 | 34846 ft | 451 kts | 138° |
| 2026-05-06 15:05 | 46.92161 | 13.71620 | 34847 ft | 451 kts | 138° |
| 2026-05-06 15:05 | 46.87975 | 13.78456 | 34841 ft | 452 kts | 138° |
| 2026-05-06 15:06 | 46.83780 | 13.85293 | 34840 ft | 452 kts | 138° |
| 2026-05-06 15:06 | 46.79574 | 13.92128 | 34849 ft | 452 kts | 138° |
| 2026-05-06 15:07 | 46.75357 | 13.98957 | 34848 ft | 453 kts | 138° |
| 2026-05-06 15:07 | 46.71140 | 14.05771 | 34863 ft | 452 kts | 138° |
| 2026-05-06 15:08 | 46.66919 | 14.12580 | 34870 ft | 452 kts | 138° |
| 2026-05-06 15:08 | 46.62740 | 14.19307 | 34876 ft | 451 kts | 138° |
| 2026-05-06 15:09 | 46.58526 | 14.26070 | 34886 ft | 450 kts | 138° |
| 2026-05-06 15:09 | 46.54322 | 14.32795 | 34867 ft | 449 kts | 138° |
| 2026-05-06 15:10 | 46.50127 | 14.39497 | 34870 ft | 448 kts | 138° |
| 2026-05-06 15:10 | 46.45932 | 14.46175 | 34881 ft | 447 kts | 138° |
| 2026-05-06 15:11 | 46.41737 | 14.52841 | 34916 ft | 448 kts | 138° |
| 2026-05-06 15:11 | 46.37525 | 14.59513 | 34917 ft | 448 kts | 138° |
| 2026-05-06 15:12 | 46.33317 | 14.66174 | 34919 ft | 449 kts | 138° |
| 2026-05-06 15:12 | 46.29089 | 14.72838 | 34910 ft | 450 kts | 138° |
| 2026-05-06 15:13 | 46.25538 | 14.78425 | 34915 ft | 450 kts | 138° |
| 2026-05-06 15:13 | 46.21326 | 14.85038 | 34914 ft | 450 kts | 138° |
| 2026-05-06 15:14 | 46.17089 | 14.91674 | 34915 ft | 450 kts | 138° |
| 2026-05-06 15:14 | 46.12858 | 14.98289 | 34910 ft | 449 kts | 138° |
| 2026-05-06 15:15 | 46.08613 | 15.04900 | 34922 ft | 448 kts | 138° |
| 2026-05-06 15:15 | 46.04388 | 15.11472 | 34910 ft | 448 kts | 138° |
| 2026-05-06 15:16 | 46.00145 | 15.18056 | 34907 ft | 447 kts | 138° |
| 2026-05-06 15:16 | 45.95910 | 15.24607 | 34905 ft | 447 kts | 138° |
| 2026-05-06 15:17 | 45.91667 | 15.31149 | 34901 ft | 447 kts | 138° |
| 2026-05-06 15:17 | 45.87429 | 15.37677 | 34898 ft | 447 kts | 138° |
| 2026-05-06 15:18 | 45.83186 | 15.44193 | 34902 ft | 447 kts | 138° |
| 2026-05-06 15:18 | 45.78952 | 15.50688 | 34896 ft | 447 kts | 138° |
| 2026-05-06 15:19 | 45.74684 | 15.57216 | 34902 ft | 448 kts | 138° |
| 2026-05-06 15:19 | 45.70414 | 15.63724 | 34907 ft | 449 kts | 138° |
| 2026-05-06 15:20 | 45.66134 | 15.70233 | 34907 ft | 449 kts | 138° |
| 2026-05-06 15:20 | 45.61847 | 15.76747 | 34904 ft | 450 kts | 138° |
| 2026-05-06 15:21 | 45.57550 | 15.83251 | 34912 ft | 450 kts | 138° |
| 2026-05-06 15:21 | 45.53255 | 15.89743 | 34908 ft | 449 kts | 138° |
| 2026-05-06 15:22 | 45.48994 | 15.96165 | 34905 ft | 448 kts | 138° |
| 2026-05-06 15:22 | 45.44673 | 16.02662 | 34906 ft | 448 kts | 139° |
| 2026-05-06 15:23 | 45.40395 | 16.09077 | 34912 ft | 447 kts | 139° |
| 2026-05-06 15:23 | 45.36115 | 16.15483 | 34918 ft | 446 kts | 139° |
| 2026-05-06 15:24 | 45.31861 | 16.21833 | 34910 ft | 447 kts | 139° |
| 2026-05-06 15:24 | 45.27568 | 16.28222 | 34923 ft | 448 kts | 139° |
| 2026-05-06 15:25 | 45.23265 | 16.34622 | 34925 ft | 448 kts | 139° |
| 2026-05-06 15:25 | 45.18955 | 16.41014 | 34909 ft | 449 kts | 138° |
| 2026-05-06 15:26 | 45.14654 | 16.47443 | 34920 ft | 451 kts | 135° |
| 2026-05-06 15:26 | 45.10604 | 16.54352 | 34915 ft | 453 kts | 134° |
| 2026-05-06 15:27 | 45.06627 | 16.61203 | 34905 ft | 454 kts | 134° |
| 2026-05-06 15:27 | 45.02601 | 16.68108 | 34914 ft | 455 kts | 134° |
| 2026-05-06 15:28 | 44.98568 | 16.75000 | 34912 ft | 456 kts | 134° |
| 2026-05-06 15:28 | 44.94524 | 16.81904 | 34909 ft | 456 kts | 134° |
| 2026-05-06 15:29 | 44.90467 | 16.88804 | 34908 ft | 456 kts | 134° |
| 2026-05-06 15:29 | 44.86404 | 16.95695 | 34908 ft | 457 kts | 134° |
| 2026-05-06 15:30 | 44.82316 | 17.02534 | 34904 ft | 456 kts | 135° |
| 2026-05-06 15:30 | 44.78171 | 17.09288 | 34909 ft | 456 kts | 135° |
| 2026-05-06 15:31 | 44.74016 | 17.16036 | 34915 ft | 456 kts | 135° |
| 2026-05-06 15:31 | 44.69852 | 17.22776 | 34915 ft | 457 kts | 135° |
| 2026-05-06 15:32 | 44.63597 | 17.32883 | 34913 ft | 457 kts | 135° |
| 2026-05-06 15:32 | 44.59439 | 17.39649 | 34922 ft | 458 kts | 135° |
| 2026-05-06 15:33 | 44.55291 | 17.46426 | 34918 ft | 458 kts | 135° |
| 2026-05-06 15:33 | 44.51131 | 17.53188 | 34921 ft | 458 kts | 135° |
| 2026-05-06 15:34 | 44.46966 | 17.59939 | 34916 ft | 458 kts | 135° |
| 2026-05-06 15:34 | 44.42808 | 17.66671 | 34915 ft | 458 kts | 135° |
| 2026-05-06 15:35 | 44.38638 | 17.73399 | 34918 ft | 458 kts | 135° |
| 2026-05-06 15:35 | 44.34528 | 17.80208 | 34911 ft | 460 kts | 134° |
| 2026-05-06 15:36 | 44.30455 | 17.87089 | 34921 ft | 459 kts | 134° |
| 2026-05-06 15:36 | 44.26369 | 17.93965 | 34938 ft | 460 kts | 134° |
| 2026-05-06 15:37 | 44.22286 | 18.00816 | 34933 ft | 459 kts | 134° |
| 2026-05-06 15:37 | 44.18198 | 18.07660 | 34936 ft | 459 kts | 134° |
| 2026-05-06 15:38 | 44.14109 | 18.14496 | 34939 ft | 460 kts | 134° |
| 2026-05-06 15:38 | 44.10003 | 18.21329 | 34947 ft | 460 kts | 134° |
| 2026-05-06 15:39 | 44.05894 | 18.28169 | 34951 ft | 461 kts | 134° |
| 2026-05-06 15:39 | 44.01799 | 18.34956 | 34954 ft | 461 kts | 134° |
| 2026-05-06 15:40 | 43.97678 | 18.41779 | 34957 ft | 462 kts | 133° |
| 2026-05-06 15:40 | 43.93545 | 18.48600 | 34957 ft | 462 kts | 134° |
| 2026-05-06 15:41 | 43.89397 | 18.55430 | 34961 ft | 463 kts | 133° |
| 2026-05-06 15:41 | 43.85245 | 18.62258 | 34964 ft | 463 kts | 133° |
| 2026-05-06 15:42 | 43.81082 | 18.69078 | 34964 ft | 464 kts | 133° |
| 2026-05-06 15:42 | 43.76907 | 18.75899 | 34969 ft | 464 kts | 133° |
| 2026-05-06 15:43 | 43.72728 | 18.82708 | 34971 ft | 464 kts | 133° |
| 2026-05-06 15:43 | 43.68556 | 18.89496 | 34968 ft | 464 kts | 133° |
| 2026-05-06 15:44 | 43.64368 | 18.96292 | 34965 ft | 464 kts | 133° |
| 2026-05-06 15:44 | 43.60204 | 19.03038 | 34974 ft | 464 kts | 133° |
| 2026-05-06 15:45 | 43.56016 | 19.09821 | 34982 ft | 465 kts | 133° |
| 2026-05-06 15:45 | 43.51554 | 19.16304 | 34979 ft | 462 kts | 143° |
| 2026-05-06 15:46 | 43.46637 | 19.21897 | 34985 ft | 462 kts | 144° |
| 2026-05-06 15:46 | 43.41669 | 19.27500 | 34996 ft | 461 kts | 144° |
| 2026-05-06 15:47 | 43.36712 | 19.33106 | 34994 ft | 462 kts | 143° |
| 2026-05-06 15:47 | 43.31743 | 19.38710 | 35003 ft | 462 kts | 144° |
| 2026-05-06 15:48 | 43.26761 | 19.44299 | 35007 ft | 463 kts | 144° |
| 2026-05-06 15:48 | 43.21771 | 19.49900 | 35015 ft | 463 kts | 144° |
| 2026-05-06 15:49 | 43.16775 | 19.55504 | 35020 ft | 464 kts | 144° |
| 2026-05-06 15:49 | 43.11787 | 19.61101 | 35025 ft | 464 kts | 144° |
| 2026-05-06 15:50 | 43.06808 | 19.66660 | 35027 ft | 464 kts | 144° |
| 2026-05-06 15:50 | 43.01798 | 19.72241 | 35027 ft | 465 kts | 144° |
| 2026-05-06 15:51 | 42.96765 | 19.77844 | 35042 ft | 465 kts | 144° |
| 2026-05-06 15:51 | 42.91734 | 19.83417 | 35045 ft | 466 kts | 144° |
| 2026-05-06 15:52 | 42.86693 | 19.88993 | 35052 ft | 466 kts | 144° |
| 2026-05-06 15:52 | 42.81654 | 19.94551 | 35051 ft | 466 kts | 144° |
| 2026-05-06 15:53 | 42.76618 | 20.00107 | 35048 ft | 466 kts | 144° |
| 2026-05-06 15:53 | 42.72089 | 20.06454 | 35052 ft | 471 kts | 132° |
| 2026-05-06 15:54 | 42.67952 | 20.13355 | 35044 ft | 471 kts | 132° |
| 2026-05-06 15:54 | 42.63796 | 20.20235 | 35041 ft | 471 kts | 132° |
| 2026-05-06 15:55 | 42.59616 | 20.27110 | 35032 ft | 471 kts | 132° |
| 2026-05-06 15:55 | 42.55445 | 20.33970 | 35035 ft | 472 kts | 132° |
| 2026-05-06 15:56 | 42.51267 | 20.40820 | 35031 ft | 472 kts | 132° |
| 2026-05-06 15:56 | 42.47780 | 20.46517 | 35035 ft | 471 kts | 132° |
| 2026-05-06 15:57 | 42.43592 | 20.53346 | 35038 ft | 471 kts | 132° |
| 2026-05-06 15:57 | 42.39389 | 20.60176 | 35044 ft | 471 kts | 132° |
| 2026-05-06 15:58 | 42.35193 | 20.66983 | 35045 ft | 472 kts | 132° |
| 2026-05-06 15:58 | 42.31013 | 20.73753 | 35036 ft | 472 kts | 132° |
| 2026-05-06 15:59 | 42.26786 | 20.80580 | 35052 ft | 472 kts | 132° |
| 2026-05-06 15:59 | 42.22564 | 20.87386 | 35037 ft | 472 kts | 132° |
| 2026-05-06 16:00 | 42.18341 | 20.94177 | 35033 ft | 473 kts | 132° |
| 2026-05-06 16:00 | 42.14135 | 21.00922 | 35008 ft | 473 kts | 132° |
| 2026-05-06 16:01 | 42.09736 | 21.07485 | 35014 ft | 471 kts | 139° |
| 2026-05-06 16:01 | 42.04969 | 21.13546 | 35006 ft | 471 kts | 139° |
| 2026-05-06 16:02 | 42.00191 | 21.19594 | 34988 ft | 472 kts | 139° |
| 2026-05-06 16:02 | 41.95411 | 21.25648 | 34976 ft | 472 kts | 139° |
| 2026-05-06 16:03 | 41.90631 | 21.31691 | 34969 ft | 473 kts | 139° |
| 2026-05-06 16:03 | 41.85834 | 21.37739 | 34984 ft | 472 kts | 139° |
| 2026-05-06 16:04 | 41.81048 | 21.43760 | 34967 ft | 472 kts | 139° |
| 2026-05-06 16:04 | 41.76256 | 21.49775 | 34980 ft | 473 kts | 139° |
| 2026-05-06 16:05 | 41.71440 | 21.55808 | 34971 ft | 473 kts | 139° |
| 2026-05-06 16:05 | 41.66633 | 21.61817 | 34978 ft | 473 kts | 139° |
| 2026-05-06 16:06 | 41.61820 | 21.67824 | 34984 ft | 474 kts | 139° |
| 2026-05-06 16:06 | 41.56998 | 21.73825 | 34995 ft | 474 kts | 139° |
| 2026-05-06 16:07 | 41.52160 | 21.79831 | 34988 ft | 474 kts | 139° |
| 2026-05-06 16:07 | 41.47327 | 21.85819 | 34982 ft | 474 kts | 139° |
| 2026-05-06 16:08 | 41.42494 | 21.91796 | 34985 ft | 474 kts | 139° |
| 2026-05-06 16:08 | 41.37649 | 21.97776 | 34994 ft | 475 kts | 139° |
| 2026-05-06 16:09 | 41.32800 | 22.03748 | 34998 ft | 475 kts | 139° |
| 2026-05-06 16:09 | 41.27948 | 22.09709 | 34998 ft | 475 kts | 139° |
| 2026-05-06 16:10 | 41.23123 | 22.15626 | 35000 ft | 475 kts | 139° |
| 2026-05-06 16:10 | 41.18228 | 22.21617 | 35001 ft | 475 kts | 139° |
| 2026-05-06 16:11 | 41.13213 | 22.27308 | 35010 ft | 475 kts | 142° |
| 2026-05-06 16:11 | 41.08077 | 22.32830 | 35010 ft | 475 kts | 142° |
| 2026-05-06 16:12 | 41.02991 | 22.38291 | 35003 ft | 475 kts | 142° |
| 2026-05-06 16:12 | 40.97841 | 22.43812 | 35011 ft | 476 kts | 142° |
| 2026-05-06 16:13 | 40.92688 | 22.49325 | 35003 ft | 476 kts | 142° |
| 2026-05-06 16:13 | 40.87538 | 22.54825 | 35013 ft | 476 kts | 142° |
| 2026-05-06 16:14 | 40.82381 | 22.60318 | 35009 ft | 476 kts | 142° |
| 2026-05-06 16:14 | 40.77212 | 22.65813 | 35011 ft | 477 kts | 142° |
| 2026-05-06 16:15 | 40.72037 | 22.71303 | 35010 ft | 477 kts | 142° |
| 2026-05-06 16:15 | 40.66858 | 22.76788 | 35018 ft | 478 kts | 142° |
| 2026-05-06 16:16 | 40.61671 | 22.82269 | 35011 ft | 478 kts | 142° |
| 2026-05-06 16:16 | 40.56472 | 22.87751 | 35026 ft | 479 kts | 142° |
| 2026-05-06 16:17 | 40.51263 | 22.93233 | 35022 ft | 480 kts | 142° |
| 2026-05-06 16:17 | 40.46067 | 22.98738 | 35026 ft | 480 kts | 139° |
| 2026-05-06 16:18 | 40.41380 | 23.05003 | 35028 ft | 481 kts | 134° |
| 2026-05-06 16:18 | 40.36810 | 23.11350 | 35026 ft | 482 kts | 134° |
| 2026-05-06 16:19 | 40.32197 | 23.17725 | 35027 ft | 482 kts | 134° |
| 2026-05-06 16:19 | 40.27573 | 23.24102 | 35035 ft | 483 kts | 134° |
| 2026-05-06 16:20 | 40.22935 | 23.30476 | 35037 ft | 484 kts | 134° |
| 2026-05-06 16:20 | 40.18287 | 23.36849 | 35040 ft | 484 kts | 134° |
| 2026-05-06 16:21 | 40.13625 | 23.43226 | 35039 ft | 485 kts | 134° |
| 2026-05-06 16:21 | 40.08965 | 23.49591 | 35047 ft | 485 kts | 134° |
| 2026-05-06 16:22 | 40.04290 | 23.55962 | 35044 ft | 486 kts | 134° |
| 2026-05-06 16:22 | 39.99611 | 23.62320 | 35047 ft | 486 kts | 134° |
| 2026-05-06 16:23 | 39.94924 | 23.68678 | 35045 ft | 487 kts | 134° |
| 2026-05-06 16:23 | 39.90231 | 23.75033 | 35044 ft | 487 kts | 134° |
| 2026-05-06 16:24 | 39.85553 | 23.81353 | 35053 ft | 488 kts | 134° |
| 2026-05-06 16:24 | 39.80846 | 23.87698 | 35055 ft | 488 kts | 134° |
| 2026-05-06 16:25 | 39.76125 | 23.94048 | 35050 ft | 488 kts | 134° |
| 2026-05-06 16:25 | 39.71405 | 24.00384 | 35053 ft | 488 kts | 134° |
| 2026-05-06 16:26 | 39.66674 | 24.06722 | 35052 ft | 489 kts | 134° |
| 2026-05-06 16:26 | 39.61935 | 24.13057 | 35055 ft | 488 kts | 134° |
| 2026-05-06 16:27 | 39.57205 | 24.19369 | 35053 ft | 489 kts | 134° |
| 2026-05-06 16:27 | 39.52458 | 24.25690 | 35057 ft | 489 kts | 134° |
| 2026-05-06 16:28 | 39.47713 | 24.31991 | 35053 ft | 489 kts | 134° |
| 2026-05-06 16:28 | 39.42953 | 24.38303 | 35056 ft | 489 kts | 134° |
| 2026-05-06 16:29 | 39.38193 | 24.44599 | 35057 ft | 490 kts | 134° |
| 2026-05-06 16:29 | 39.33425 | 24.50896 | 35063 ft | 490 kts | 134° |
| 2026-05-06 16:30 | 39.29492 | 24.56154 | 35060 ft | 490 kts | 134° |
| 2026-05-06 16:30 | 39.23950 | 24.63573 | 35064 ft | 491 kts | 134° |
| 2026-05-06 16:31 | 39.19236 | 24.69858 | 35064 ft | 491 kts | 134° |
| 2026-05-06 16:31 | 39.14480 | 24.76183 | 35064 ft | 491 kts | 134° |
| 2026-05-06 16:32 | 39.09723 | 24.82494 | 35066 ft | 492 kts | 134° |
| 2026-05-06 16:32 | 39.04913 | 24.88741 | 35070 ft | 492 kts | 134° |
| 2026-05-06 16:33 | 39.00082 | 24.94983 | 35068 ft | 492 kts | 134° |
| 2026-05-06 16:34 | 38.92843 | 25.04345 | 35070 ft | 492 kts | 134° |
| 2026-05-06 16:34 | 38.88012 | 25.10576 | 35070 ft | 492 kts | 134° |
| 2026-05-06 16:35 | 38.83177 | 25.16797 | 35067 ft | 493 kts | 134° |
| 2026-05-06 16:35 | 38.78328 | 25.23027 | 35072 ft | 493 kts | 134° |
| 2026-05-06 16:36 | 38.73483 | 25.29242 | 35080 ft | 493 kts | 134° |
| 2026-05-06 16:36 | 38.68625 | 25.35455 | 35076 ft | 494 kts | 134° |
| 2026-05-06 16:37 | 38.63762 | 25.41662 | 35078 ft | 494 kts | 134° |
| 2026-05-06 16:37 | 38.58898 | 25.47864 | 35078 ft | 494 kts | 134° |
| 2026-05-06 16:38 | 38.54025 | 25.54061 | 35080 ft | 494 kts | 135° |
| 2026-05-06 16:38 | 38.49151 | 25.60246 | 35081 ft | 494 kts | 135° |
| 2026-05-06 16:39 | 38.44288 | 25.66405 | 35024 ft | 490 kts | 135° |
| 2026-05-06 16:39 | 38.41861 | 25.69474 | 34194 ft | 493 kts | 135° |
| 2026-05-06 16:39 | 38.39401 | 25.72581 | 32968 ft | 502 kts | 134° |
| 2026-05-06 16:39 | 38.36911 | 25.75722 | 32071 ft | 505 kts | 134° |
| 2026-05-06 16:40 | 38.34422 | 25.78871 | 31322 ft | 504 kts | 134° |
| 2026-05-06 16:40 | 38.31930 | 25.82026 | 30577 ft | 504 kts | 134° |
| 2026-05-06 16:40 | 38.29441 | 25.85174 | 29732 ft | 504 kts | 134° |
| 2026-05-06 16:40 | 38.26944 | 25.88329 | 28813 ft | 506 kts | 134° |
| 2026-05-06 16:41 | 38.24399 | 25.91414 | 28002 ft | 506 kts | 137° |
| 2026-05-06 16:41 | 38.22652 | 25.93367 | 27541 ft | 504 kts | 138° |
| 2026-05-06 16:41 | 38.20025 | 25.96287 | 26811 ft | 501 kts | 138° |
| 2026-05-06 16:41 | 38.17405 | 25.99192 | 26061 ft | 498 kts | 138° |
| 2026-05-06 16:42 | 38.14802 | 26.02074 | 25343 ft | 495 kts | 138° |
| 2026-05-06 16:42 | 38.12207 | 26.04947 | 24601 ft | 493 kts | 138° |
| 2026-05-06 16:42 | 38.09634 | 26.07793 | 23870 ft | 490 kts | 138° |
| 2026-05-06 16:42 | 38.07060 | 26.10637 | 23052 ft | 487 kts | 138° |
| 2026-05-06 16:43 | 38.04522 | 26.13438 | 22215 ft | 481 kts | 138° |
| 2026-05-06 16:43 | 38.02008 | 26.16212 | 21422 ft | 474 kts | 138° |
| 2026-05-06 16:43 | 37.99538 | 26.18933 | 20671 ft | 467 kts | 138° |
| 2026-05-06 16:43 | 37.97107 | 26.21607 | 19995 ft | 459 kts | 138° |
| 2026-05-06 16:44 | 37.94720 | 26.24230 | 19375 ft | 450 kts | 138° |
| 2026-05-06 16:44 | 37.92377 | 26.26801 | 18768 ft | 441 kts | 138° |
| 2026-05-06 16:44 | 37.90079 | 26.29321 | 18159 ft | 433 kts | 137° |
| 2026-05-06 16:44 | 37.87822 | 26.31799 | 17520 ft | 425 kts | 137° |
| 2026-05-06 16:45 | 37.85608 | 26.34224 | 16900 ft | 418 kts | 137° |
| 2026-05-06 16:45 | 37.83426 | 26.36606 | 16309 ft | 411 kts | 137° |
| 2026-05-06 16:45 | 37.81275 | 26.38952 | 15744 ft | 405 kts | 137° |
| 2026-05-06 16:45 | 37.79201 | 26.41215 | 15216 ft | 403 kts | 137° |
| 2026-05-06 16:46 | 37.77228 | 26.43720 | 14659 ft | 401 kts | 128° |
| 2026-05-06 16:46 | 37.75456 | 26.46434 | 14093 ft | 401 kts | 127° |
| 2026-05-06 16:46 | 37.73693 | 26.49163 | 13499 ft | 401 kts | 127° |
| 2026-05-06 16:46 | 37.71926 | 26.51887 | 12915 ft | 400 kts | 127° |
| 2026-05-06 16:47 | 37.70160 | 26.54595 | 12329 ft | 399 kts | 127° |
| 2026-05-06 16:47 | 37.68581 | 26.57420 | 11726 ft | 388 kts | 115° |
| 2026-05-06 16:47 | 37.67201 | 26.60300 | 11292 ft | 381 kts | 127° |
| 2026-05-06 16:47 | 37.65250 | 26.62474 | 11019 ft | 370 kts | 147° |
| 2026-05-06 16:48 | 37.62927 | 26.63683 | 10794 ft | 357 kts | 167° |
| 2026-05-06 16:48 | 37.60520 | 26.64161 | 10608 ft | 342 kts | 170° |
| 2026-05-06 16:48 | 37.58270 | 26.64901 | 10419 ft | 328 kts | 159° |
| 2026-05-06 16:48 | 37.56235 | 26.66060 | 10213 ft | 315 kts | 150° |
| 2026-05-06 16:49 | 37.54461 | 26.67463 | 9768 ft | 313 kts | 142° |
| 2026-05-06 16:49 | 37.52772 | 26.69178 | 9256 ft | 311 kts | 135° |
| 2026-05-06 16:49 | 37.51254 | 26.71083 | 8835 ft | 306 kts | 129° |
| 2026-05-06 16:49 | 37.49892 | 26.73134 | 8226 ft | 303 kts | 123° |
| 2026-05-06 16:50 | 37.48739 | 26.75286 | 7756 ft | 296 kts | 118° |
| 2026-05-06 16:50 | 37.47743 | 26.77564 | 7347 ft | 292 kts | 113° |
| 2026-05-06 16:50 | 37.46937 | 26.79859 | 6939 ft | 289 kts | 108° |
| 2026-05-06 16:50 | 37.46287 | 26.82242 | 6519 ft | 286 kts | 103° |
| 2026-05-06 16:51 | 37.45797 | 26.84652 | 6100 ft | 282 kts | 99° |
| 2026-05-06 16:51 | 37.45707 | 26.87052 | 5689 ft | 271 kts | 73° |
| 2026-05-06 16:51 | 37.46497 | 26.89118 | 5345 ft | 259 kts | 47° |
| 2026-05-06 16:51 | 37.47864 | 26.90506 | 5044 ft | 251 kts | 24° |
| 2026-05-06 16:52 | 37.49520 | 26.91061 | 4728 ft | 246 kts | 2° |
| 2026-05-06 16:52 | 37.51193 | 26.90742 | 4409 ft | 244 kts | 341° |
| 2026-05-06 16:52 | 37.52767 | 26.90082 | 4203 ft | 233 kts | 352° |
| 2026-05-06 16:52 | 37.54345 | 26.90012 | 4030 ft | 221 kts | 1° |
| 2026-05-06 16:53 | 37.55845 | 26.90078 | 3866 ft | 209 kts | 2° |
| 2026-05-06 16:53 | 37.57249 | 26.90148 | 3714 ft | 196 kts | 2° |
| 2026-05-06 16:53 | 37.58540 | 26.90214 | 3619 ft | 176 kts | 1° |
| 2026-05-06 16:53 | 37.59707 | 26.90272 | 3532 ft | 159 kts | 1° |
| 2026-05-06 16:54 | 37.60755 | 26.90322 | 3361 ft | 143 kts | 1° |
| 2026-05-06 16:54 | 37.61762 | 26.90377 | 2859 ft | 146 kts | 2° |
| 2026-05-06 16:54 | 37.62759 | 26.90296 | 2515 ft | 142 kts | 347° |
| 2026-05-06 16:54 | 37.63702 | 26.89884 | 2207 ft | 144 kts | 338° |
| 2026-05-06 16:55 | 37.64589 | 26.89284 | 2112 ft | 145 kts | 326° |
| 2026-05-06 16:55 | 37.65361 | 26.88545 | 2055 ft | 131 kts | 322° |
| 2026-05-06 16:55 | 37.66047 | 26.87812 | 1901 ft | 128 kts | 318° |
| 2026-05-06 16:55 | 37.66758 | 26.87123 | 1553 ft | 129 kts | 324° |
| 2026-05-06 16:56 | 37.67576 | 26.86733 | 1179 ft | 132 kts | 1° |
| 2026-05-06 16:56 | 37.68383 | 26.87275 | 840 ft | 137 kts | 51° |
| 2026-05-06 16:56 | 37.68896 | 26.88279 | 576 ft | 134 kts | 69° |
| 2026-05-06 16:56 | 37.69042 | 26.89421 | 255 ft | 133 kts | 94° |
| 2026-05-06 16:57 | 37.68955 | 26.90570 | 50 ft | 128 kts | 97° |
| 2026-05-06 16:57 | 37.68862 | 26.91786 | 520 ft | 150 kts | 95° |
| 2026-05-06 16:57 | 37.68773 | 26.93096 | 1123 ft | 150 kts | 97° |
| 2026-05-06 16:57 | 37.68625 | 26.94463 | 1471 ft | 166 kts | 95° |
| 2026-05-06 16:58 | 37.68456 | 26.95994 | 1937 ft | 183 kts | 94° |
| 2026-05-06 16:58 | 37.68173 | 26.97611 | 2562 ft | 198 kts | 112° |
| 2026-05-06 16:58 | 37.67234 | 26.98942 | 3262 ft | 213 kts | 146° |
| 2026-05-06 16:58 | 37.65789 | 26.99609 | 3857 ft | 233 kts | 169° |
| 2026-05-06 16:59 | 37.64155 | 26.99526 | 4665 ft | 239 kts | 192° |
| 2026-05-06 16:59 | 37.62517 | 26.99043 | 5433 ft | 245 kts | 195° |
| 2026-05-06 16:59 | 37.60850 | 26.98517 | 5869 ft | 249 kts | 195° |
| 2026-05-06 16:59 | 37.59167 | 26.97990 | 6035 ft | 249 kts | 195° |
| 2026-05-06 17:00 | 37.57536 | 26.97295 | 6056 ft | 246 kts | 211° |
| 2026-05-06 17:00 | 37.56240 | 26.95966 | 5687 ft | 238 kts | 236° |
| 2026-05-06 17:00 | 37.55375 | 26.94213 | 5313 ft | 235 kts | 246° |
| 2026-05-06 17:00 | 37.54620 | 26.92388 | 4959 ft | 233 kts | 249° |
| 2026-05-06 17:01 | 37.54166 | 26.90489 | 4588 ft | 227 kts | 268° |
| 2026-05-06 17:01 | 37.54269 | 26.88523 | 4225 ft | 220 kts | 289° |
| 2026-05-06 17:01 | 37.54893 | 26.86808 | 3881 ft | 214 kts | 308° |
| 2026-05-06 17:01 | 37.55905 | 26.85518 | 3534 ft | 210 kts | 327° |
| 2026-05-06 17:02 | 37.57224 | 26.84783 | 3203 ft | 205 kts | 348° |
| 2026-05-06 17:02 | 37.58607 | 26.84661 | 3006 ft | 194 kts | 3° |
| 2026-05-06 17:02 | 37.59919 | 26.84877 | 2735 ft | 188 kts | 11° |
| 2026-05-06 17:02 | 37.61170 | 26.85342 | 2382 ft | 187 kts | 19° |
| 2026-05-06 17:03 | 37.62331 | 26.85933 | 2225 ft | 171 kts | 19° |
| 2026-05-06 17:03 | 37.63372 | 26.86550 | 2054 ft | 162 kts | 29° |
| 2026-05-06 17:03 | 37.64265 | 26.87440 | 1932 ft | 162 kts | 29° |
| 2026-05-06 17:03 | 37.65258 | 26.87806 | 2057 ft | 142 kts | 355° |
| 2026-05-06 17:04 | 37.66133 | 26.87458 | 1781 ft | 129 kts | 335° |
| 2026-05-06 17:04 | 37.66961 | 26.87006 | 1355 ft | 127 kts | 336° |
| 2026-05-06 17:04 | 37.67835 | 26.86887 | 1044 ft | 135 kts | 17° |
| 2026-05-06 17:04 | 37.68543 | 26.87651 | 735 ft | 135 kts | 56° |
| 2026-05-06 17:05 | 37.68910 | 26.88717 | 428 ft | 131 kts | 78° |
| 2026-05-06 17:05 | 37.68993 | 26.89855 | 149 ft | 131 kts | 90° |
| 2026-05-06 17:05 | 37.68931 | 26.90974 | 39 ft | 121 kts | 93° |
| 2026-05-06 17:05 | 37.68881 | 26.91841 | 34 ft | 60 kts | 95° |
| 2026-05-06 17:06 | 37.68866 | 26.92072 | 34 ft | 15 kts | 94° |
| 2026-05-06 17:06 | 37.68859 | 26.92205 | 34 ft | 12 kts | 94° |
| 2026-05-06 17:06 | 37.68859 | 26.92300 | 34 ft | 9 kts | 60° |
| 2026-05-06 17:06 | 37.68850 | 26.92342 | 34 ft | 9 kts | 214° |
| 2026-05-06 17:07 | 37.68850 | 26.92257 | 34 ft | 11 kts | 275° |
| 2026-05-06 17:07 | 37.68858 | 26.92150 | 34 ft | 13 kts | 274° |
| 2026-05-06 17:07 | 37.68864 | 26.92059 | 34 ft | 10 kts | 274° |
| 2026-05-06 17:07 | 37.68869 | 26.91964 | 34 ft | 12 kts | 274° |
| 2026-05-06 17:08 | 37.68876 | 26.91848 | 34 ft | 12 kts | 274° |
| 2026-05-06 17:08 | 37.68883 | 26.91730 | 34 ft | 14 kts | 274° |
| 2026-05-06 17:08 | 37.68891 | 26.91595 | 34 ft | 17 kts | 274° |
| 2026-05-06 17:08 | 37.68900 | 26.91457 | 34 ft | 11 kts | 274° |
| 2026-05-06 17:09 | 37.68922 | 26.91374 | 34 ft | 10 kts | 332° |
| 2026-05-06 17:09 | 37.68981 | 26.91370 | 34 ft | 5 kts | 5° |
| 2026-05-06 17:09 | 37.69025 | 26.91376 | 34 ft | 6 kts | 5° |
| 2026-05-06 17:09 | 37.69040 | 26.91377 | 34 ft | 1 kts | 3° |
| 2026-05-06 17:10 | 37.69050 | 26.91378 | 34 ft | 2 kts | 4° |
| 2026-05-06 17:10 | 37.69051 | 26.91378 | 34 ft | 0 kts | 4° |